Flight Track Log - Related Links

Times and Time Zones

All times are in EDT time to prevent confusion due to time zone crossing. See the DAL454 flight status page for this flight to view local times or setup timezone preferences in your user account.

Time Position Orientation Groundspeed Altitude Reporting Facility
EDT Latitude Longitude Course Direction KTS MPH feet Rate Location/Type
Thu 09:03:23 AM 40.5833 -73.8000 128° Southeast 193 222 1,800  Level New York TRACON
Thu 09:05:38 AM 40.4886 -73.6664 133° Southeast 262 302 8,000 2,708 Climbing New York Center
Thu 09:06:00 AM 40.3502 -73.2836 131° Southeast  Level FlightAware Approximate
Thu 09:06:38 AM 40.4514 -73.5747 118° Southeast 302 348 10,600  Level New York Center
Thu 09:07:00 AM 40.2694 -73.1541 128° Southeast  Level FlightAware Approximate
Thu 09:07:38 AM 40.4042 -73.4475 116° Southeast 338 389 12,100  Level New York Center
Thu 09:08:00 AM 40.1906 -73.0225 128° Southeast  Level FlightAware Approximate
Thu 09:08:38 AM 40.3589 -73.3286 117° Southeast 382 440 14,300  Level New York Center
Thu 09:09:38 AM 40.2953 -73.1903 121° Southeast 406 467 16,400 2,100 Climbing New York Center
Thu 09:10:38 AM 40.2186 -73.0678 129° Southeast 425 489 18,500 1,600 Climbing New York Center
Thu 09:11:38 AM 40.1372 -72.9567 134° Southeast 425 489 19,600 1,500 Climbing New York Center
Thu 09:12:38 AM 40.0475 -72.8561 139° Southeast 426 490 21,500 1,800 Climbing New York Center
Thu 09:13:38 AM 39.9578 -72.7506 138° Southeast 432 497 23,200 1,450 Climbing New York Center
Thu 09:14:38 AM 39.8636 -72.6450 139° Southeast 437 503 24,400 1,600 Climbing New York Center
Thu 09:15:38 AM 39.7694 -72.5344 138° Southeast 448 516 26,400 1,800 Climbing New York Center
Thu 09:16:38 AM 39.6731 -72.4269 139° Southeast 454 522 28,000 1,450 Climbing New York Center
Thu 09:17:38 AM 39.5764 -72.3222 140° Southeast 454 522 29,300 1,500 Climbing New York Center
Thu 09:18:38 AM 39.4819 -72.2097 137° Southeast 454 522 31,000 1,600 Climbing New York Center
Thu 09:19:38 AM 39.3875 -72.1058 140° Southeast 454 522 32,500 1,050 Climbing New York Center
Thu 09:20:38 AM 39.2928 -72.0019 140° Southeast 454 522 33,100 1,100 Climbing New York Center
Thu 09:21:38 AM 39.1939 -71.8903 139° Southeast 454 522 34,700 1,450 Climbing New York Center
Thu 09:22:38 AM 39.0989 -71.7817 138° Southeast 459 528 36,000 950 Climbing New York Center
Thu 09:23:38 AM 39.0017 -71.6789 141° Southeast 453 521 36,600 500 Climbing New York Center
Thu 09:24:38 AM 38.9047 -71.5683 138° Southeast 453 521 37,000 450 Climbing New York Center
Thu 09:25:38 AM 38.8053 -71.4550 138° Southeast 464 534 37,500 500 Climbing New York Center
Thu 09:26:38 AM 38.7058 -71.3425 139° Southeast 475 547 38,000 250 Climbing New York Center
Thu 09:27:38 AM 38.6042 -71.2325 140° Southeast 480 552 38,000  Level New York Center
Thu 09:28:38 AM 38.5025 -71.1231 140° Southeast 480 552 38,000  Level New York Center
Thu 09:29:38 AM 38.3964 -71.0139 141° Southeast 480 552 38,000  Level New York Center
Thu 09:30:38 AM 38.2944 -70.8969 138° Southeast 480 552 38,000  Level New York Center
Thu 09:31:38 AM 38.1944 -70.7831 138° Southeast 480 552 38,000  Level New York Center
Thu 09:32:38 AM 38.0881 -70.6775 142° Southeast 480 552 38,000  Level New York Center
Thu 09:33:38 AM 37.9836 -70.5669 140° Southeast 485 558 38,000  Level New York Center
Thu 09:34:38 AM 37.8731 -70.4856 150° Southeast 480 552 38,000  Level New York Center
Thu 09:35:13 AM 38.0000 -70.5833 153° Southeast 460 529 38,000  Level New York Oceanic (ODAPS)
Thu 09:51:49 AM 36.1667 -69.4500 143° Southeast 507 583 38,000  Level New York Oceanic (ODAPS)
Thu 10:01:26 AM 34.7961 -68.1864 144° Southeast 481 554 38,000  Level New York Center
Thu 10:02:00 AM 34.7010 -68.0926 143° Southeast 507 583 38,000  Level FlightAware Transoceanic
Thu 10:02:26 AM 34.6978 -68.0733 137° Southeast 481 554 38,000  Level New York Center
Thu 10:03:00 AM 34.5876 -67.9902 143° Southeast 507 583 38,000  Level FlightAware Transoceanic
Thu 10:03:26 AM 34.5997 -67.9856 144° Southeast 488 562 38,000  Level New York Center
Thu 10:04:00 AM 34.4742 -67.8880 143° Southeast 507 583 38,000  Level FlightAware Transoceanic
Thu 10:04:27 AM 34.4822 -67.8739 142° Southeast 488 562 38,000  Level New York Center
Thu 10:05:00 AM 34.3606 -67.7862 144° Southeast 507 583 38,000  Level FlightAware Transoceanic
Thu 10:05:26 AM 34.3675 -67.7797 146° Southeast 501 577 38,000  Level New York Center
Thu 10:06:26 AM 34.2631 -67.6956 146° Southeast 508 585 38,000  Level New York Center
Thu 10:07:26 AM 34.1436 -67.5922 144° Southeast 485 558 38,000  Level New York Center
Thu 10:08:26 AM 34.0319 -67.5539 164° South 489 563 38,000  Level New York Center
Thu 10:09:26 AM 33.8958 -67.5267 171° South 456 525 38,000  Level New York Center
Thu 10:10:26 AM 33.7739 -67.4964 168° South 447 514 38,000  Level New York Center
Thu 10:11:26 AM 33.6506 -67.4789 173° South 475 547 38,000  Level New York Center
Thu 10:12:26 AM 33.5244 -67.4439 167° South 463 533 38,000 100 Level New York Center
Thu 10:13:26 AM 33.4028 -67.4214 171° South 469 540 38,200 350 Climbing New York Center
Thu 10:14:26 AM 33.2706 -67.3894 169° South 455 524 38,700 400 Climbing New York Center
Thu 10:15:26 AM 33.1344 -67.3675 172° South 472 543 39,000 150 Climbing New York Center
Thu 10:16:26 AM 33.0253 -67.3422 169° South 470 541 39,000  Level New York Center
Thu 10:17:26 AM 32.8786 -67.3111 170° South 480 552 39,000  Level New York Center
Thu 10:18:26 AM 32.7422 -67.2822 170° South 483 556 39,000  Level New York Center
Thu 10:19:26 AM 32.6164 -67.2578 171° South 502 578 39,000  Level New York Center
Thu 10:20:26 AM 32.4675 -67.2294 171° South 491 565 39,000  Level New York Center
Thu 10:21:26 AM 32.3544 -67.2044 169° South 485 558 39,000  Level New York Center
Thu 10:22:26 AM 32.2033 -67.1717 170° South 500 575 39,000  Level New York Center
Thu 10:23:26 AM 32.0692 -67.1428 170° South 494 568 39,000  Level New York Center
Thu 10:24:26 AM 31.9475 -67.1211 171° South 494 568 39,000  Level New York Center
Thu 10:25:26 AM 31.8008 -67.0906 170° South 488 562 39,000  Level New York Center
Thu 10:26:26 AM 31.6772 -67.0642 170° South 493 567 39,000  Level New York Center
Thu 10:27:26 AM 31.5283 -67.0339 170° South 500 575 39,000  Level New York Center
Thu 10:28:26 AM 31.3964 -67.0081 171° South 494 568 39,000  Level New York Center
Thu 10:29:26 AM 31.2769 -66.9842 170° South 489 563 39,000  Level New York Center
Thu 10:30:26 AM 31.1325 -66.9564 171° South 485 558 39,000  Level New York Center
Thu 10:31:26 AM 30.9961 -66.9283 170° South 500 575 39,000  Level New York Center
Thu 10:32:26 AM 30.8703 -66.9000 169° South 505 581 39,000  Level New York Center
Thu 10:33:26 AM 30.7244 -66.8894 176° South 493 567 39,000  Level New York Center
Thu 10:34:26 AM 30.5947 -66.8711 173° South 505 581 39,000  Level New York Center
Thu 10:35:26 AM 30.4489 -66.8631 177° South 489 563 39,000  Level New York Center
Thu 10:36:27 AM 30.3131 -66.8497 175° South 487 560 39,000  Level New York Center
Thu 10:37:26 AM 30.1858 -66.8361 175° South 492 566 39,000  Level New York Center
Thu 10:38:26 AM 30.0378 -66.8281 177° South 497 572 39,000  Level New York Center
Thu 11:29:18 AM 23.5000 -65.5333 165° South 520 598 39,000  Level New York Oceanic (ODAPS)
Thu 11:34:30 AM 22.4500 -65.2333 166° South 470 541 39,000  Level San Juan Center
Thu 11:35:00 AM 22.2386 -65.1776 166° South 520 598 39,000  Level FlightAware Transoceanic
Thu 11:35:30 AM 22.3333 -65.2167 172° South 460 529 39,000  Level San Juan Center
Thu 11:36:00 AM 22.0984 -65.1384 166° South 520 598 39,000  Level FlightAware Transoceanic
Thu 11:36:46 AM 22.1500 -65.1500 161° South 490 564 39,000  Level San Juan Center
Thu 11:37:00 AM 21.9582 -65.0994 166° South 520 598 39,000  Level FlightAware Transoceanic
Thu 11:37:46 AM 22.0167 -65.1000 161° South 490 564 39,000  Level San Juan Center
Thu 11:38:00 AM 21.8179 -65.0604 166° South 520 598 39,000  Level FlightAware Transoceanic
Thu 11:38:46 AM 21.8833 -65.0667 167° South 500 575 39,000  Level San Juan Center
Thu 11:39:00 AM 21.6777 -65.0215 166° South 520 598 39,000  Level FlightAware Transoceanic
Thu 11:39:47 AM 21.7500 -65.0667 180° South 500 575 39,000  Level San Juan Center
Thu 11:40:47 AM 21.6167 -65.1000 193° South 490 564 39,000  Level San Juan Center
Thu 11:41:47 AM 21.4833 -65.1000 180° South 480 552 39,000  Level San Juan Center
Thu 11:42:48 AM 21.3500 -65.1333 193° South 500 575 39,000  Level San Juan Center
Thu 11:43:48 AM 21.2167 -65.1333 180° South 480 552 39,000  Level San Juan Center
Thu 11:44:49 AM 21.0833 -65.1333 180° South 520 598 39,000  Level San Juan Center
Thu 11:45:49 AM 20.9333 -65.1500 186° South 470 541 39,000  Level San Juan Center
Thu 11:46:49 AM 20.8167 -65.1667 188° South 480 552 39,000  Level San Juan Center
Thu 11:47:50 AM 20.6833 -65.1833 187° South 480 552 39,000 -298 Level San Juan Center
Thu 11:48:50 AM 20.5500 -65.1833 180° South 480 552 38,400 -900 Descending San Juan Center
Thu 11:49:50 AM 20.4167 -65.2000 187° South 490 564 37,200 -1,140 Descending San Juan Center
Thu 11:50:51 AM 20.2833 -65.2167 187° South 490 564 36,100 -1,140 Descending San Juan Center
Thu 11:51:51 AM 20.1333 -65.2333 186° South 500 575 34,900 -1,140 Descending San Juan Center
Thu 11:52:52 AM 20.0000 -65.2333 180° South 490 564 33,800 -1,190 Descending San Juan Center
Thu 11:53:52 AM 19.8667 -65.2500 187° South 510 587 32,500 -1,950 Descending San Juan Center
Thu 11:54:52 AM 19.7167 -65.2667 186° South 520 598 29,900 -2,926 Descending San Juan Center
Thu 11:55:53 AM 19.5667 -65.2833 186° South 520 598 26,600 -3,124 Descending San Juan Center
Thu 11:56:53 AM 19.4000 -65.2833 180° South 490 564 23,600 -2,800 Descending San Juan Center
Thu 11:57:53 AM 19.2667 -65.3000 187° South 470 541 21,000 -2,579 Descending San Juan Center
Thu 11:58:54 AM 19.1500 -65.3167 188° South 450 518 18,400 -2,479 Descending San Juan Center
Thu 11:59:54 AM 19.0333 -65.3333 188° South 430 495 16,000 -2,500 Descending San Juan Center
Thu 12:00:54 PM 18.9167 -65.3333 180° South 410 472 13,400 -2,850 Descending San Juan Center
Thu 12:01:54 PM 18.8000 -65.3500 188° South 380 437 10,300 -1,835 Descending San Juan Center
Thu 12:02:55 PM 18.7167 -65.3167 159° South 320 368 9,700 -1,091 Descending San Juan Center
Thu 12:03:55 PM 18.6500 -65.3000 167° South 290 334 8,100 -1,686 Descending San Juan Center
Thu 12:04:56 PM 18.5667 -65.2667 159° South 280 322 6,300 -1,736 Descending San Juan Center
Thu 12:05:56 PM 18.5000 -65.2333 155° Southeast 260 299 4,600 -1,650 Descending San Juan Center
Thu 12:06:56 PM 18.4333 -65.2167 167° South 260 299 3,000 -793 Descending San Juan Center
Thu 12:07:57 PM 18.3667 -65.1833 155° Southeast 250 288 3,000 -99 Level San Juan Center
Thu 12:08:57 PM 18.3333 -65.1333 125° Southeast 230 265 2,800 -595 Descending San Juan Center
Thu 12:09:58 PM 18.3167 -65.0667 105° East 200 230 1,800 -893 Descending San Juan Center
Thu 12:10:58 PM 18.3167 -65.0333 90° East 140 161 1,000 -750 Descending San Juan Center
Thu 12:11:58 PM 18.3333 -64.9833 71° East 130 150 300 -700 Descending San Juan Center

Login

Don't have an account? Register now (free) for customized features, flight alerts, and more!